createdAt,value
2018-01-01T00:00:07.137Z,83.00
2018-01-01T00:02:38.204Z,82.30
2018-01-01T00:05:06.401Z,81.70
2018-01-01T00:07:35.328Z,82.70
2018-01-01T00:10:04.061Z,82.70
2018-01-01T00:12:32.208Z,82.20
2018-01-01T00:15:00.391Z,82.50
2018-01-01T00:17:28.524Z,82.60
2018-01-01T00:19:57.457Z,82.00
2018-01-01T00:22:25.628Z,81.90
2018-01-01T00:24:53.793Z,82.20
2018-01-01T00:27:21.985Z,81.80
2018-01-01T00:29:50.153Z,81.50
2018-01-01T00:32:18.299Z,81.20
2018-01-01T00:34:46.493Z,81.60
2018-01-01T00:37:14.660Z,81.10
2018-01-01T00:39:43.672Z,80.20
2018-01-01T00:42:11.810Z,80.10
2018-01-01T00:44:40.029Z,80.40
2018-01-01T00:47:08.607Z,80.90
2018-01-01T00:49:36.786Z,80.30
2018-01-01T00:52:04.940Z,79.60
2018-01-01T00:54:33.118Z,79.40
2018-01-01T00:57:01.301Z,78.70
2018-01-01T00:59:29.806Z,78.70
2018-01-01T01:01:57.952Z,78.70
2018-01-01T01:04:26.182Z,79.00
2018-01-01T01:06:55.097Z,78.80
2018-01-01T01:09:23.281Z,78.80
2018-01-01T01:11:51.449Z,79.20
2018-01-01T01:14:19.632Z,77.20
2018-01-01T01:16:47.788Z,77.60
2018-01-01T01:19:15.946Z,77.80
2018-01-01T01:21:44.876Z,77.40
2018-01-01T01:24:13.054Z,77.40
2018-01-01T01:26:41.209Z,77.90
2018-01-01T01:29:09.367Z,77.40
2018-01-01T01:31:38.297Z,77.30
2018-01-01T01:34:06.450Z,77.20
2018-01-01T01:36:34.625Z,77.10
2018-01-01T01:39:03.478Z,76.20
2018-01-01T01:41:31.695Z,74.50
2018-01-01T01:44:00.828Z,76.30
2018-01-01T01:46:29.017Z,76.30
2018-01-01T01:48:57.172Z,75.00
2018-01-01T01:51:26.145Z,74.70
2018-01-01T01:53:54.313Z,74.60
2018-01-01T01:56:22.490Z,73.30
2018-01-01T01:58:50.645Z,73.10
2018-01-01T02:01:18.827Z,73.30
2018-01-01T02:03:46.986Z,71.60
2018-01-01T02:06:15.165Z,72.80
2018-01-01T02:08:43.782Z,72.40
2018-01-01T02:11:12.043Z,72.20
2018-01-01T02:13:40.180Z,73.30
2018-01-01T02:16:09.148Z,73.00
2018-01-01T02:18:37.317Z,73.10
2018-01-01T02:21:05.665Z,73.30
2018-01-01T02:23:33.832Z,72.30
2018-01-01T02:26:01.992Z,71.70
2018-01-01T02:28:30.162Z,71.70
2018-01-01T02:30:58.357Z,72.40
2018-01-01T02:33:26.515Z,72.10
2018-01-01T02:35:54.698Z,72.00
2018-01-01T02:38:22.841Z,72.30
2018-01-01T02:40:51.797Z,71.20
2018-01-01T02:43:20.550Z,71.20
2018-01-01T02:45:49.161Z,70.30
2018-01-01T02:48:17.322Z,69.30
2018-01-01T02:50:45.513Z,70.60
2018-01-01T02:53:13.706Z,71.00
2018-01-01T02:55:41.895Z,70.80
2018-01-01T02:58:10.822Z,69.90
2018-01-01T03:00:38.987Z,69.80
2018-01-01T03:03:07.270Z,70.30
2018-01-01T03:05:35.449Z,71.10
2018-01-01T03:08:04.253Z,69.80
2018-01-01T03:10:32.426Z,69.40
2018-01-01T03:13:00.581Z,70.60
2018-01-01T03:15:29.236Z,70.00
2018-01-01T03:17:58.177Z,68.90
2018-01-01T03:20:26.365Z,68.80
2018-01-01T03:22:54.548Z,69.90
2018-01-01T03:25:22.739Z,70.30
2018-01-01T03:27:51.709Z,69.90
2018-01-01T03:30:19.908Z,69.90
2018-01-01T03:32:48.073Z,69.70
2018-01-01T03:35:16.288Z,69.40
2018-01-01T03:37:45.200Z,70.00
2018-01-01T03:40:13.375Z,70.00
2018-01-01T03:42:41.520Z,69.30
2018-01-01T03:45:10.428Z,69.10
2018-01-01T03:47:38.606Z,69.10
2018-01-01T03:50:06.758Z,69.70
2018-01-01T03:52:35.691Z,69.20
2018-01-01T03:55:03.864Z,69.20
2018-01-01T03:57:32.061Z,68.80
2018-01-01T04:00:00.195Z,68.90
2018-01-01T04:02:28.361Z,69.20
2018-01-01T04:04:56.530Z,69.70
2018-01-01T04:07:24.692Z,67.80
2018-01-01T04:09:53.606Z,67.90
2018-01-01T04:12:21.781Z,67.90
2018-01-01T04:14:49.949Z,67.90
2018-01-01T04:17:18.591Z,66.50
2018-01-01T04:19:46.733Z,66.90
2018-01-01T04:22:14.903Z,67.40
2018-01-01T04:24:43.094Z,66.90
2018-01-01T04:27:11.277Z,66.20
2018-01-01T04:29:39.440Z,66.50
2018-01-01T04:32:07.616Z,66.50
2018-01-01T04:34:35.760Z,66.10
2018-01-01T04:37:04.228Z,64.60
2018-01-01T04:39:32.368Z,64.20
2018-01-01T04:42:00.606Z,64.70
2018-01-01T04:44:28.989Z,64.70
2018-01-01T04:46:57.161Z,63.50
2018-01-01T04:49:25.322Z,64.40
2018-01-01T04:51:53.478Z,64.30
2018-01-01T04:54:21.655Z,63.80
2018-01-01T04:56:50.578Z,64.30
2018-01-01T04:59:18.782Z,64.30
2018-01-01T05:01:46.972Z,64.10
2018-01-01T05:04:15.892Z,63.40
2018-01-01T05:06:44.053Z,63.40
2018-01-01T05:09:12.212Z,62.80
2018-01-01T05:11:40.394Z,64.90
2018-01-01T05:14:09.289Z,63.30
2018-01-01T05:16:38.213Z,63.10
2018-01-01T05:19:06.357Z,63.00
2018-01-01T05:21:35.296Z,62.50
2018-01-01T05:24:03.786Z,62.50
2018-01-01T05:26:32.469Z,62.90
2018-01-01T05:29:00.639Z,63.50
2018-01-01T05:31:28.881Z,62.10
2018-01-01T05:33:57.041Z,62.60
2018-01-01T05:36:26.458Z,62.30
2018-01-01T05:38:54.596Z,63.00
2018-01-01T05:41:22.758Z,63.70
2018-01-01T05:43:50.901Z,63.40
2018-01-01T05:46:19.116Z,63.70
2018-01-01T05:48:47.250Z,63.10
2018-01-01T05:51:15.423Z,64.00
2018-01-01T05:53:43.573Z,64.00
2018-01-01T05:56:11.753Z,64.50
2018-01-01T05:58:39.885Z,65.90
2018-01-01T06:01:08.068Z,66.20
2018-01-01T06:03:36.200Z,66.50
2018-01-01T06:06:04.340Z,65.70
2018-01-01T06:08:32.547Z,65.50
2018-01-01T06:11:01.049Z,66.00
2018-01-01T06:13:29.300Z,65.30
2018-01-01T06:15:57.440Z,66.30
2018-01-01T06:18:26.362Z,65.70
2018-01-01T06:20:54.521Z,65.70
2018-01-01T06:23:22.684Z,64.70
2018-01-01T06:25:51.581Z,64.10
2018-01-01T06:28:19.737Z,64.10
2018-01-01T06:30:48.665Z,67.30
2018-01-01T06:33:16.847Z,67.30
2018-01-01T06:35:44.990Z,68.20
2018-01-01T06:38:13.160Z,68.20
2018-01-01T06:40:42.542Z,70.00
2018-01-01T06:43:11.489Z,70.40
2018-01-01T06:45:39.640Z,70.30
2018-01-01T06:48:07.807Z,70.70
2018-01-01T06:50:35.963Z,69.80
2018-01-01T06:53:04.902Z,70.20
2018-01-01T06:55:33.039Z,70.10
2018-01-01T06:58:01.211Z,69.90
2018-01-01T07:00:29.477Z,68.40
2018-01-01T07:02:58.469Z,69.10
2018-01-01T07:05:27.373Z,68.90
2018-01-01T07:07:55.548Z,68.90
2018-01-01T07:10:24.448Z,68.50
2018-01-01T07:12:53.460Z,68.50
2018-01-01T07:15:21.633Z,68.80
2018-01-01T07:17:49.782Z,69.80
2018-01-01T07:20:18.682Z,70.20
2018-01-01T07:22:46.851Z,70.10
2018-01-01T07:25:14.993Z,70.80
2018-01-01T07:27:43.926Z,72.40
2018-01-01T07:30:12.069Z,71.80
2018-01-01T07:32:41.010Z,70.60
2018-01-01T07:35:09.205Z,70.60
2018-01-01T07:37:37.395Z,70.70
2018-01-01T07:40:05.565Z,70.20
2018-01-01T07:42:33.798Z,70.60
2018-01-01T07:45:02.025Z,70.00
2018-01-01T07:47:30.460Z,70.70
2018-01-01T07:49:58.640Z,69.20
2018-01-01T07:52:26.830Z,68.60
2018-01-01T07:54:55.802Z,68.50
2018-01-01T07:57:23.969Z,68.50
2018-01-01T07:59:52.113Z,68.10
2018-01-01T08:02:21.079Z,67.90
2018-01-01T08:04:50.013Z,66.80
2018-01-01T08:07:18.207Z,66.90
2018-01-01T08:09:46.364Z,67.50
2018-01-01T08:12:15.208Z,66.90
2018-01-01T08:14:43.396Z,67.50
2018-01-01T08:17:11.599Z,66.80
2018-01-01T08:19:40.162Z,65.00
2018-01-01T08:22:09.231Z,65.60
2018-01-01T08:24:37.399Z,65.60
2018-01-01T08:27:05.528Z,65.00
2018-01-01T08:29:33.705Z,64.40
2018-01-01T08:32:02.418Z,64.20
2018-01-01T08:34:31.351Z,63.40
2018-01-01T08:37:00.311Z,63.30
2018-01-01T08:39:28.483Z,63.30
2018-01-01T08:41:56.750Z,62.50
2018-01-01T08:44:24.911Z,62.80
2018-01-01T08:46:53.075Z,63.00
2018-01-01T08:49:21.238Z,61.80
2018-01-01T08:51:50.150Z,63.70
2018-01-01T08:54:18.350Z,63.70
2018-01-01T08:56:46.692Z,62.60
2018-01-01T08:59:14.899Z,61.70
2018-01-01T09:01:43.793Z,63.80
2018-01-01T09:04:11.973Z,64.90
2018-01-01T09:06:40.116Z,62.90
2018-01-01T09:09:08.376Z,60.60
2018-01-01T09:11:42.356Z,61.90
2018-01-01T09:14:10.622Z,61.90
2018-01-01T09:16:38.774Z,62.00
2018-01-01T09:19:06.966Z,63.10
2018-01-01T09:21:35.903Z,62.60
2018-01-01T09:24:04.066Z,62.60
2018-01-01T09:26:33.213Z,61.50
2018-01-01T09:29:01.605Z,61.40
2018-01-01T09:31:29.748Z,62.60
2018-01-01T09:33:58.115Z,61.80
2018-01-01T09:36:26.289Z,62.20
2018-01-01T09:38:54.660Z,62.30
2018-01-01T09:41:23.406Z,61.70
2018-01-01T09:43:51.938Z,61.10
2018-01-01T09:46:20.493Z,61.50
2018-01-01T09:48:48.882Z,60.70
2018-01-01T09:51:18.158Z,58.20
2018-01-01T09:53:46.737Z,57.60
2018-01-01T09:56:14.997Z,58.90
2018-01-01T09:58:43.181Z,58.50
2018-01-01T10:01:11.338Z,59.20
2018-01-01T10:03:39.577Z,57.70
2018-01-01T10:06:08.132Z,58.00
2018-01-01T10:08:36.371Z,56.60
2018-01-01T10:11:04.517Z,54.40
2018-01-01T10:13:33.477Z,54.70
2018-01-01T10:16:01.922Z,54.70
2018-01-01T10:18:30.916Z,54.70
2018-01-01T10:20:59.068Z,54.70
2018-01-01T10:23:28.000Z,54.40
2018-01-01T10:25:56.591Z,54.30
2018-01-01T10:28:24.792Z,54.80
2018-01-01T10:30:52.944Z,54.30
2018-01-01T10:33:21.107Z,55.50
2018-01-01T10:35:49.280Z,55.00
2018-01-01T10:38:17.498Z,55.10
2018-01-01T10:40:46.417Z,54.30
2018-01-01T10:43:15.585Z,54.30
2018-01-01T10:45:43.752Z,54.10
2018-01-01T10:48:12.370Z,53.30
2018-01-01T10:50:41.045Z,54.60
2018-01-01T10:53:10.027Z,54.90
2018-01-01T10:55:38.965Z,55.40
2018-01-01T10:58:07.898Z,55.20
2018-01-01T11:00:36.068Z,55.20
2018-01-01T11:03:04.661Z,56.10
2018-01-01T11:05:33.645Z,54.40
2018-01-01T11:08:01.912Z,54.30
2018-01-01T11:10:30.083Z,54.50
2018-01-01T11:12:58.253Z,54.90
2018-01-01T11:15:26.468Z,56.30
2018-01-01T11:17:54.617Z,57.10
2018-01-01T11:20:22.800Z,55.80
2018-01-01T11:22:50.949Z,57.90
2018-01-01T11:25:19.144Z,58.60
2018-01-01T11:27:47.309Z,58.40
2018-01-01T11:30:15.505Z,57.40
2018-01-01T11:32:43.648Z,57.80
2018-01-01T11:35:11.825Z,57.60
2018-01-01T11:37:39.997Z,57.60
2018-01-01T11:40:08.202Z,57.00
2018-01-01T11:42:36.431Z,58.00
2018-01-01T11:45:04.604Z,58.30
2018-01-01T11:47:32.772Z,59.60
2018-01-01T11:50:00.959Z,59.50
2018-01-01T11:52:30.165Z,62.50
2018-01-01T11:54:58.341Z,62.50
2018-01-01T11:57:26.476Z,64.40
2018-01-01T11:59:54.656Z,65.00
2018-01-01T12:02:22.792Z,65.80
2018-01-01T12:04:50.966Z,68.20
2018-01-01T12:07:19.125Z,68.60
2018-01-01T12:09:47.290Z,67.10
2018-01-01T12:12:19.539Z,67.40
2018-01-01T12:14:43.809Z,68.20
2018-01-01T12:17:12.931Z,68.80
2018-01-01T12:19:41.315Z,69.00
2018-01-01T12:22:10.396Z,69.20
2018-01-01T12:24:38.581Z,69.20
2018-01-01T12:27:06.733Z,69.60
2018-01-01T12:29:34.915Z,70.00
2018-01-01T12:32:03.074Z,70.00
2018-01-01T12:34:31.276Z,70.00
2018-01-01T12:36:59.482Z,70.70
2018-01-01T12:39:27.752Z,70.90
2018-01-01T12:41:55.927Z,71.90
2018-01-01T12:44:26.316Z,71.80
2018-01-01T12:46:54.612Z,73.00
2018-01-01T12:49:22.829Z,73.10
2018-01-01T12:51:51.940Z,73.30
2018-01-01T12:54:20.921Z,72.30
2018-01-01T12:56:49.280Z,72.30
2018-01-01T12:59:17.428Z,73.40
2018-01-01T13:01:45.608Z,73.00
2018-01-01T13:04:13.816Z,72.20
2018-01-01T13:06:42.053Z,72.50
2018-01-01T13:09:10.338Z,72.10
2018-01-01T13:11:38.534Z,71.90
2018-01-01T13:14:08.153Z,72.60
2018-01-01T13:16:36.320Z,72.60
2018-01-01T13:19:04.736Z,72.70
2018-01-01T13:21:33.014Z,73.60
2018-01-01T13:24:01.219Z,73.90
2018-01-01T13:26:30.157Z,74.10
2018-01-01T13:28:59.232Z,73.20
2018-01-01T13:31:27.434Z,73.10
2018-01-01T13:33:56.526Z,73.10
2018-01-01T13:36:25.613Z,74.20
2018-01-01T13:38:53.822Z,74.20
2018-01-01T13:41:22.250Z,73.90
2018-01-01T13:43:50.634Z,74.50
2018-01-01T13:46:18.827Z,74.40
2018-01-01T13:48:47.827Z,74.50
2018-01-01T13:51:16.800Z,74.30
2018-01-01T13:53:44.946Z,74.30
2018-01-01T13:56:13.251Z,74.80
2018-01-01T13:58:41.434Z,73.80
2018-01-01T14:01:10.629Z,73.80
2018-01-01T14:03:38.798Z,73.70
2018-01-01T14:06:07.095Z,74.20
2018-01-01T14:08:36.025Z,72.90
2018-01-01T14:11:05.061Z,72.90
2018-01-01T14:13:33.805Z,73.00
2018-01-01T14:16:02.021Z,73.50
2018-01-01T14:18:30.192Z,72.70
2018-01-01T14:20:58.390Z,73.90
2018-01-01T14:23:27.504Z,72.30
2018-01-01T14:25:56.897Z,99.90
2018-01-01T14:28:25.826Z,72.40
2018-01-01T14:30:54.057Z,72.40
2018-01-01T14:33:22.408Z,73.40
2018-01-01T14:35:50.590Z,73.00
2018-01-01T14:38:18.931Z,73.20
2018-01-01T14:40:47.104Z,74.10
2018-01-01T14:43:15.673Z,74.60
2018-01-01T14:45:44.823Z,72.50
2018-01-01T14:48:12.976Z,72.50
2018-01-01T14:50:41.166Z,72.20
2018-01-01T14:53:09.309Z,70.90
2018-01-01T14:55:37.484Z,70.00
2018-01-01T14:58:06.409Z,70.00
2018-01-01T15:00:34.636Z,70.00
2018-01-01T15:03:03.936Z,70.40
2018-01-01T15:05:32.172Z,70.40
2018-01-01T15:08:00.353Z,71.00
2018-01-01T15:10:28.526Z,70.90
2018-01-01T15:12:56.699Z,70.10
2018-01-01T15:15:24.889Z,70.80
2018-01-01T15:17:53.117Z,71.30
2018-01-01T15:20:21.315Z,71.50
2018-01-01T15:22:49.469Z,72.70
2018-01-01T15:25:17.649Z,71.80
2018-01-01T15:27:46.574Z,71.00
2018-01-01T15:30:14.763Z,71.00
2018-01-01T15:32:42.935Z,71.00
2018-01-01T15:35:11.132Z,71.20
2018-01-01T15:37:40.061Z,72.80
2018-01-01T15:40:08.246Z,72.80
2018-01-01T15:42:36.712Z,73.80
2018-01-01T15:45:04.950Z,74.50
2018-01-01T15:47:33.150Z,75.30
2018-01-01T15:50:01.303Z,75.70
2018-01-01T15:52:30.275Z,76.80
2018-01-01T15:54:58.423Z,76.80
2018-01-01T15:57:26.604Z,77.30
2018-01-01T15:59:54.776Z,77.60
2018-01-01T16:02:22.959Z,78.40
2018-01-01T16:04:51.111Z,78.70
2018-01-01T16:07:19.378Z,79.30
2018-01-01T16:09:47.526Z,79.20
2018-01-01T16:12:16.460Z,80.00
2018-01-01T16:14:44.654Z,79.40
2018-01-01T16:17:12.842Z,79.30
2018-01-01T16:19:41.776Z,79.00
2018-01-01T16:22:09.957Z,78.90
2018-01-01T16:24:38.184Z,79.00
2018-01-01T16:27:07.666Z,79.00
2018-01-01T16:29:35.833Z,79.00
2018-01-01T16:32:04.261Z,79.00
2018-01-01T16:34:33.167Z,79.00
2018-01-01T16:37:02.833Z,78.90
2018-01-01T16:39:32.250Z,78.50
2018-01-01T16:42:00.637Z,79.30
2018-01-01T16:44:29.008Z,78.10
2018-01-01T16:46:57.954Z,77.70
2018-01-01T16:49:26.121Z,77.70
2018-01-01T16:51:54.336Z,78.10
2018-01-01T16:54:22.491Z,77.80
2018-01-01T16:56:51.473Z,77.10
2018-01-01T16:59:19.891Z,77.10
2018-01-01T17:01:49.418Z,76.90
2018-01-01T17:04:18.439Z,77.50
2018-01-01T17:06:47.466Z,76.80
2018-01-01T17:09:15.842Z,76.90
2018-01-01T17:11:44.030Z,76.10
2018-01-01T17:14:12.182Z,75.30
2018-01-01T17:16:41.268Z,76.10
2018-01-01T17:19:10.055Z,76.00
2018-01-01T17:21:40.602Z,74.90
2018-01-01T17:26:38.192Z,73.90
2018-01-01T17:29:06.362Z,74.30
2018-01-01T17:31:34.622Z,74.90
2018-01-01T17:34:02.795Z,74.70
2018-01-01T17:36:31.264Z,74.80
2018-01-01T17:39:00.059Z,73.80
2018-01-01T17:41:28.267Z,73.50
2018-01-01T17:43:57.057Z,74.10
2018-01-01T17:46:25.743Z,74.00
2018-01-01T17:48:54.125Z,73.40
2018-01-01T17:51:23.688Z,74.40
2018-01-01T17:53:51.880Z,74.40
2018-01-01T17:56:20.079Z,73.40
2018-01-01T17:58:48.313Z,74.10
2018-01-01T18:01:17.407Z,73.90
2018-01-01T18:03:46.041Z,73.70
2018-01-01T18:06:15.186Z,73.50
2018-01-01T18:08:44.115Z,73.30
2018-01-01T18:11:13.121Z,73.80
2018-01-01T18:13:41.290Z,73.70
2018-01-01T18:16:09.594Z,73.20
2018-01-01T18:18:37.764Z,72.80
2018-01-01T18:21:06.771Z,73.40
2018-01-01T18:23:34.968Z,73.30
2018-01-01T18:26:04.590Z,73.50
2018-01-01T18:28:33.797Z,73.20
2018-01-01T18:31:02.421Z,73.10
2018-01-01T18:33:31.475Z,73.40
2018-01-01T18:35:59.629Z,73.40
2018-01-01T18:38:28.590Z,72.30
2018-01-01T18:40:56.763Z,72.30
2018-01-01T18:43:25.102Z,72.60
2018-01-01T18:45:54.982Z,73.00
2018-01-01T18:48:23.227Z,73.00
2018-01-01T18:50:51.589Z,73.90
2018-01-01T18:53:20.247Z,74.10
2018-01-01T18:55:48.521Z,74.30
2018-01-01T18:58:17.606Z,76.30
2018-01-01T19:00:46.809Z,76.20
2018-01-01T19:03:15.757Z,77.30
2018-01-01T19:05:43.944Z,77.20
2018-01-01T19:08:12.973Z,79.20
2018-01-01T19:10:41.149Z,79.20
2018-01-01T19:13:09.664Z,79.30
2018-01-01T19:15:38.036Z,80.80
2018-01-01T19:18:06.354Z,81.60
2018-01-01T19:20:34.494Z,83.30
2018-01-01T19:23:04.137Z,84.30
2018-01-01T19:25:32.506Z,86.40
2018-01-01T19:28:00.721Z,85.70
2018-01-01T19:30:30.872Z,86.70
2018-01-01T19:32:59.973Z,88.30
2018-01-01T19:35:29.605Z,88.30
2018-01-01T19:37:57.791Z,88.70
2018-01-01T19:40:25.974Z,88.70
2018-01-01T19:42:54.153Z,90.10
2018-01-01T19:45:22.318Z,89.80
2018-01-01T19:47:50.481Z,89.80
2018-01-01T19:50:18.765Z,90.00
2018-01-01T19:52:46.924Z,90.30
2018-01-01T19:55:15.228Z,90.00
2018-01-01T19:57:43.409Z,90.40
2018-01-01T20:00:11.649Z,90.60
2018-01-01T20:02:41.364Z,90.50
2018-01-01T20:05:09.572Z,90.80
2018-01-01T20:07:38.554Z,91.30
2018-01-01T20:10:07.679Z,91.60
2018-01-01T20:12:35.899Z,91.60
2018-01-01T20:15:04.229Z,91.90
2018-01-01T20:17:32.484Z,91.50
2018-01-01T20:20:01.352Z,91.60
2018-01-01T20:22:30.456Z,91.30
2018-01-01T20:24:58.688Z,91.30
2018-01-01T20:27:27.818Z,91.50
2018-01-01T20:29:56.026Z,91.50
2018-01-01T20:32:25.062Z,91.50
2018-01-01T20:34:53.295Z,90.90
2018-01-01T20:37:22.478Z,90.00
2018-01-01T20:39:50.809Z,90.00
2018-01-01T20:42:19.112Z,90.30
2018-01-01T20:44:47.539Z,90.30
2018-01-01T20:47:16.094Z,90.40
2018-01-01T20:49:44.394Z,90.50
2018-01-01T20:52:12.608Z,90.50
2018-01-01T20:54:41.763Z,90.40
2018-01-01T20:57:14.170Z,90.40
2018-01-01T20:59:42.437Z,90.10
2018-01-01T21:02:10.635Z,90.50
2018-01-01T21:04:38.844Z,90.40
2018-01-01T21:07:07.019Z,90.80
2018-01-01T21:09:35.933Z,90.60
2018-01-01T21:12:04.730Z,90.60
2018-01-01T21:14:32.881Z,90.80
2018-01-01T21:17:01.178Z,90.70
2018-01-01T21:19:30.689Z,90.80
2018-01-01T21:21:58.865Z,90.80
2018-01-01T21:24:27.021Z,90.70
2018-01-01T21:26:55.206Z,91.00
2018-01-01T21:29:23.390Z,90.80
2018-01-01T21:31:51.608Z,90.80
2018-01-01T21:34:19.753Z,90.70
2018-01-01T21:36:47.930Z,90.80
2018-01-01T21:39:16.582Z,90.70
2018-01-01T21:41:44.750Z,90.60
2018-01-01T21:44:12.894Z,90.30
2018-01-01T21:46:41.062Z,90.40
2018-01-01T21:49:09.251Z,90.40
2018-01-01T21:51:38.193Z,90.40
2018-01-01T21:54:07.038Z,90.50
2018-01-01T21:56:35.992Z,90.60
2018-01-01T21:59:04.630Z,90.60
2018-01-01T22:01:32.803Z,90.30
2018-01-01T22:04:00.998Z,90.00
2018-01-01T22:06:29.290Z,89.60
2018-01-01T22:08:57.434Z,89.80
2018-01-01T22:11:25.609Z,89.50
2018-01-01T22:13:53.787Z,90.00
2018-01-01T22:16:21.955Z,90.20
2018-01-01T22:18:50.101Z,89.70
2018-01-01T22:21:19.050Z,90.00
2018-01-01T22:23:47.209Z,90.00
2018-01-01T22:26:15.419Z,89.70
2018-01-01T22:28:43.572Z,89.90
2018-01-01T22:31:11.791Z,89.70
2018-01-01T22:33:39.954Z,90.00
2018-01-01T22:36:08.091Z,89.50
2018-01-01T22:38:36.257Z,90.40
2018-01-01T22:41:04.516Z,90.10
2018-01-01T22:43:32.689Z,90.00
2018-01-01T22:46:00.845Z,89.70
2018-01-01T22:48:29.797Z,89.70
2018-01-01T22:50:57.955Z,89.60
2018-01-01T22:53:26.894Z,89.60
2018-01-01T22:55:55.065Z,89.60
2018-01-01T22:58:24.010Z,90.30
2018-01-01T23:00:52.169Z,90.30
2018-01-01T23:03:20.346Z,90.20
2018-01-01T23:05:48.476Z,90.00
2018-01-01T23:08:17.417Z,90.40
2018-01-01T23:10:45.574Z,90.40
2018-01-01T23:13:13.734Z,89.10
2018-01-01T23:15:42.645Z,90.10
2018-01-01T23:18:10.812Z,90.10
2018-01-01T23:20:39.765Z,88.90
2018-01-01T23:23:07.941Z,88.80
2018-01-01T23:25:36.105Z,88.40
2018-01-01T23:28:04.289Z,89.60
2018-01-01T23:30:32.477Z,90.30
2018-01-01T23:33:01.432Z,88.80
2018-01-01T23:35:29.697Z,88.70
2018-01-01T23:37:58.230Z,88.90
2018-01-01T23:40:26.388Z,90.00
2018-01-01T23:42:54.623Z,90.50
2018-01-01T23:45:23.281Z,90.60
2018-01-01T23:47:52.209Z,90.10
2018-01-01T23:50:20.378Z,90.10
2018-01-01T23:52:48.565Z,90.30
2018-01-01T23:55:17.527Z,90.70
2018-01-01T23:57:45.716Z,90.60
